createdAt,value
2019-03-06T00:00:11.669Z,71.68
2019-03-06T00:00:50.445Z,70.74
2019-03-06T00:01:28.515Z,70.74
2019-03-06T00:02:04.604Z,70.53
2019-03-06T00:02:40.798Z,70.19
2019-03-06T00:03:17.174Z,69.84
2019-03-06T00:03:53.322Z,68.98
2019-03-06T00:04:29.537Z,68.98
2019-03-06T00:05:06.009Z,68.59
2019-03-06T00:05:42.214Z,68.30
2019-03-06T00:06:18.370Z,67.04
2019-03-06T00:06:54.581Z,67.04
2019-03-06T00:07:30.723Z,67.02
2019-03-06T00:08:06.994Z,67.15
2019-03-06T00:08:43.197Z,67.03
2019-03-06T00:09:19.255Z,66.85
2019-03-06T00:09:55.382Z,66.64
2019-03-06T00:10:31.908Z,66.62
2019-03-06T00:11:08.095Z,66.45
2019-03-06T00:11:44.326Z,66.46
2019-03-06T00:12:20.475Z,66.65
2019-03-06T00:12:56.684Z,66.84
2019-03-06T00:13:32.857Z,67.14
2019-03-06T00:14:09.029Z,67.18
2019-03-06T00:14:45.344Z,67.29
2019-03-06T00:15:21.503Z,67.26
2019-03-06T00:15:57.622Z,67.35
2019-03-06T00:16:33.788Z,67.84
2019-03-06T00:17:09.925Z,67.84
2019-03-06T00:17:46.142Z,67.39
2019-03-06T00:18:22.381Z,67.86
2019-03-06T00:18:58.524Z,67.86
2019-03-06T00:19:34.820Z,67.71
2019-03-06T00:20:10.891Z,67.78
2019-03-06T00:20:47.079Z,67.92
2019-03-06T00:21:23.274Z,68.00
2019-03-06T00:21:59.418Z,68.04
2019-03-06T00:22:35.619Z,68.08
2019-03-06T00:23:11.715Z,68.11
2019-03-06T00:23:47.870Z,67.94
2019-03-06T00:24:24.130Z,68.19
2019-03-06T00:25:00.324Z,68.03
2019-03-06T00:25:36.601Z,68.29
2019-03-06T00:26:12.686Z,68.29
2019-03-06T00:26:48.799Z,68.04
2019-03-06T00:27:24.822Z,68.53
2019-03-06T00:28:00.935Z,68.25
2019-03-06T00:28:37.305Z,67.99
2019-03-06T00:29:13.419Z,67.99
2019-03-06T00:29:49.537Z,68.90
2019-03-06T00:30:25.703Z,68.90
2019-03-06T00:31:02.103Z,68.30
2019-03-06T00:31:38.321Z,68.30
2019-03-06T00:32:14.537Z,68.93
2019-03-06T00:32:50.696Z,68.93
2019-03-06T00:33:26.797Z,68.26
2019-03-06T00:34:02.925Z,68.50
2019-03-06T00:34:39.191Z,68.50
2019-03-06T00:35:19.822Z,67.48
2019-03-06T00:35:56.122Z,67.48
2019-03-06T00:36:33.124Z,67.78
2019-03-06T00:37:09.262Z,67.53
2019-03-06T00:37:45.434Z,67.49
2019-03-06T00:38:21.550Z,67.80
2019-03-06T00:38:57.746Z,67.62
2019-03-06T00:39:41.741Z,67.62
2019-03-06T00:40:36.825Z,67.30
2019-03-06T00:41:26.924Z,66.71
2019-03-06T00:42:03.070Z,66.94
2019-03-06T00:42:43.417Z,67.15
2019-03-06T00:43:19.538Z,66.93
2019-03-06T00:43:55.725Z,66.93
2019-03-06T00:44:31.839Z,66.50
2019-03-06T00:45:09.549Z,66.50
2019-03-06T00:45:45.711Z,66.10
2019-03-06T00:46:21.847Z,65.26
2019-03-06T00:46:58.094Z,65.26
2019-03-06T00:47:34.287Z,64.70
2019-03-06T00:48:10.443Z,64.37
2019-03-06T00:48:46.562Z,65.48
2019-03-06T00:49:22.767Z,65.48
2019-03-06T00:49:59.100Z,64.78
2019-03-06T00:50:35.249Z,64.52
2019-03-06T00:51:11.570Z,64.37
2019-03-06T00:51:47.745Z,64.22
2019-03-06T00:52:23.919Z,63.69
2019-03-06T00:53:00.026Z,63.69
2019-03-06T00:53:36.282Z,63.66
2019-03-06T00:54:12.414Z,63.42
2019-03-06T00:54:48.564Z,63.38
2019-03-06T00:55:24.771Z,63.25
2019-03-06T00:56:01.027Z,63.16
2019-03-06T00:56:37.178Z,63.09
2019-03-06T00:57:13.342Z,62.95
2019-03-06T00:57:49.551Z,62.82
2019-03-06T00:58:25.658Z,62.77
2019-03-06T00:59:02.005Z,62.68
2019-03-06T00:59:38.199Z,62.59
2019-03-06T01:00:15.781Z,62.43
2019-03-06T01:00:51.996Z,62.31
2019-03-06T01:01:28.149Z,62.17
2019-03-06T01:02:04.575Z,62.08
2019-03-06T01:02:40.735Z,61.82
2019-03-06T01:03:17.007Z,61.78
2019-03-06T01:03:53.296Z,61.62
2019-03-06T01:04:29.594Z,61.51
2019-03-06T01:05:06.048Z,61.38
2019-03-06T01:05:42.191Z,61.36
2019-03-06T01:06:18.261Z,61.35
2019-03-06T01:06:54.810Z,61.30
2019-03-06T01:07:31.004Z,61.15
2019-03-06T01:08:07.185Z,61.06
2019-03-06T01:08:43.467Z,60.85
2019-03-06T01:09:19.640Z,60.84
2019-03-06T01:09:55.801Z,60.70
2019-03-06T01:10:31.910Z,60.57
2019-03-06T01:11:08.067Z,60.49
2019-03-06T01:11:44.246Z,60.42
2019-03-06T01:12:20.527Z,60.34
2019-03-06T01:12:56.786Z,60.12
2019-03-06T01:13:32.778Z,60.01
2019-03-06T01:14:08.882Z,59.83
2019-03-06T01:14:44.998Z,59.62
2019-03-06T01:15:21.339Z,59.52
2019-03-06T01:15:57.678Z,59.26
2019-03-06T01:16:33.839Z,59.08
2019-03-06T01:17:10.039Z,58.99
2019-03-06T01:17:46.336Z,58.88
2019-03-06T01:18:22.539Z,58.79
2019-03-06T01:18:58.634Z,58.65
2019-03-06T01:19:34.744Z,58.61
2019-03-06T01:20:10.908Z,58.60
2019-03-06T01:20:47.060Z,58.64
2019-03-06T01:21:23.104Z,58.70
2019-03-06T01:21:59.181Z,58.66
2019-03-06T01:22:35.479Z,58.58
2019-03-06T01:23:11.621Z,58.54
2019-03-06T01:23:47.789Z,58.41
2019-03-06T01:24:23.939Z,58.37
2019-03-06T01:25:00.305Z,58.48
2019-03-06T01:25:36.590Z,58.41
2019-03-06T01:26:12.757Z,58.30
2019-03-06T01:26:48.997Z,58.25
2019-03-06T01:27:25.161Z,58.30
2019-03-06T01:28:01.408Z,58.18
2019-03-06T01:28:37.588Z,58.13
2019-03-06T01:29:13.679Z,57.98
2019-03-06T01:29:49.731Z,57.63
2019-03-06T01:30:25.902Z,57.50
2019-03-06T01:31:02.156Z,57.47
2019-03-06T01:31:38.405Z,57.32
2019-03-06T01:32:14.464Z,57.14
2019-03-06T01:32:53.791Z,57.10
2019-03-06T01:33:46.972Z,57.11
2019-03-06T01:34:50.898Z,57.08
2019-03-06T01:35:48.582Z,56.94
2019-03-06T01:36:49.408Z,56.81
2019-03-06T01:37:56.478Z,56.66
2019-03-06T01:39:01.299Z,56.50
2019-03-06T01:40:05.167Z,56.22
2019-03-06T01:40:57.060Z,56.29
2019-03-06T01:41:49.668Z,56.05
2019-03-06T01:42:39.923Z,56.02
2019-03-06T01:43:34.887Z,56.15
2019-03-06T01:44:15.721Z,56.12
2019-03-06T01:44:55.403Z,55.92
2019-03-06T01:45:31.662Z,55.88
2019-03-06T01:46:07.933Z,55.74
2019-03-06T01:46:44.195Z,55.62
2019-03-06T01:47:20.379Z,55.60
2019-03-06T01:47:56.493Z,55.61
2019-03-06T01:48:32.663Z,55.36
2019-03-06T01:49:08.811Z,55.24
2019-03-06T01:49:45.130Z,55.18
2019-03-06T01:50:21.190Z,55.10
2019-03-06T01:50:57.471Z,54.80
2019-03-06T01:51:33.625Z,54.54
2019-03-06T01:52:09.745Z,54.52
2019-03-06T01:52:45.867Z,54.39
2019-03-06T01:53:21.997Z,54.06
2019-03-06T01:53:58.114Z,53.90
2019-03-06T01:54:34.205Z,53.82
2019-03-06T01:55:12.058Z,53.79
2019-03-06T01:55:48.195Z,53.74
2019-03-06T01:56:24.336Z,53.67
2019-03-06T01:57:00.521Z,53.49
2019-03-06T01:57:36.973Z,53.31
2019-03-06T01:58:13.219Z,53.20
2019-03-06T01:58:49.503Z,53.01
2019-03-06T01:59:25.632Z,52.96
2019-03-06T02:00:01.729Z,53.15
2019-03-06T02:00:38.149Z,53.04
2019-03-06T02:01:14.334Z,52.97
2019-03-06T02:01:50.420Z,52.67
2019-03-06T02:02:26.684Z,52.67
2019-03-06T02:03:02.823Z,52.34
2019-03-06T02:03:39.144Z,52.18
2019-03-06T02:04:15.267Z,52.21
2019-03-06T02:04:51.464Z,52.38
2019-03-06T02:05:27.571Z,52.55
2019-03-06T02:06:03.710Z,52.73
2019-03-06T02:06:40.098Z,52.97
2019-03-06T02:07:16.518Z,53.04
2019-03-06T02:07:52.590Z,53.01
2019-03-06T02:08:28.704Z,53.06
2019-03-06T02:09:05.231Z,52.73
2019-03-06T02:09:41.401Z,52.57
2019-03-06T02:10:17.975Z,52.42
2019-03-06T02:10:54.128Z,52.32
2019-03-06T02:11:30.241Z,52.27
2019-03-06T02:12:06.948Z,52.17
2019-03-06T02:12:43.159Z,52.00
2019-03-06T02:13:19.984Z,51.76
2019-03-06T02:13:56.147Z,51.50
2019-03-06T02:14:32.482Z,51.07
2019-03-06T02:15:09.155Z,50.99
2019-03-06T02:15:45.285Z,50.74
2019-03-06T02:16:21.362Z,50.58
2019-03-06T02:16:57.472Z,50.52
2019-03-06T02:17:33.609Z,50.63
2019-03-06T02:18:09.784Z,50.70
2019-03-06T02:18:45.952Z,50.55
2019-03-06T02:19:22.201Z,50.34
2019-03-06T02:19:58.364Z,50.20
2019-03-06T02:20:34.568Z,50.22
2019-03-06T02:21:10.735Z,50.17
2019-03-06T02:21:46.828Z,49.95
2019-03-06T02:22:23.039Z,49.85
2019-03-06T02:22:59.185Z,49.71
2019-03-06T02:23:35.433Z,49.56
2019-03-06T02:24:11.616Z,49.56
2019-03-06T02:24:47.701Z,49.68
2019-03-06T02:25:23.861Z,49.30
2019-03-06T02:25:59.925Z,49.12
2019-03-06T02:26:36.069Z,49.09
2019-03-06T02:27:12.246Z,49.25
2019-03-06T02:27:48.378Z,49.45
2019-03-06T02:28:24.477Z,49.83
2019-03-06T02:29:00.616Z,49.62
2019-03-06T02:29:36.742Z,49.48
2019-03-06T02:30:15.236Z,49.42
2019-03-06T02:30:51.352Z,49.19
2019-03-06T02:31:27.877Z,48.76
2019-03-06T02:32:03.980Z,48.56
2019-03-06T02:32:40.325Z,48.52
2019-03-06T02:33:16.616Z,48.51
2019-03-06T02:33:52.841Z,48.57
2019-03-06T02:34:29.103Z,48.47
2019-03-06T02:35:05.387Z,48.33
2019-03-06T02:35:41.524Z,48.33
2019-03-06T02:36:17.683Z,48.39
2019-03-06T02:36:53.809Z,48.31
2019-03-06T02:37:30.041Z,48.22
2019-03-06T02:38:06.129Z,48.18
2019-03-06T02:38:42.272Z,47.92
2019-03-06T02:39:18.357Z,47.91
2019-03-06T02:39:54.566Z,47.90
2019-03-06T02:40:30.713Z,48.00
2019-03-06T02:41:06.899Z,48.03
2019-03-06T02:41:43.264Z,48.05
2019-03-06T02:42:19.401Z,48.07
2019-03-06T02:42:55.565Z,47.93
2019-03-06T02:43:31.721Z,47.80
2019-03-06T02:44:07.939Z,47.75
2019-03-06T02:44:44.017Z,47.67
2019-03-06T02:45:20.285Z,47.57
2019-03-06T02:45:56.416Z,47.58
2019-03-06T02:46:32.538Z,47.44
2019-03-06T02:47:08.687Z,47.25
2019-03-06T02:47:44.970Z,47.14
2019-03-06T02:48:21.128Z,47.09
2019-03-06T02:48:57.275Z,46.89
2019-03-06T02:49:33.484Z,46.79
2019-03-06T02:50:11.025Z,46.79
2019-03-06T02:50:47.399Z,46.73
2019-03-06T02:51:23.542Z,46.55
2019-03-06T02:51:59.571Z,46.50
2019-03-06T02:52:35.774Z,46.42
2019-03-06T02:53:11.986Z,46.40
2019-03-06T02:53:48.154Z,46.44
2019-03-06T02:54:24.268Z,46.30
2019-03-06T02:55:00.549Z,46.22
2019-03-06T02:55:36.638Z,46.14
2019-03-06T02:56:12.704Z,46.02
2019-03-06T02:56:48.878Z,45.75
2019-03-06T02:57:24.952Z,45.65
2019-03-06T02:58:20.792Z,45.82
2019-03-06T02:59:18.410Z,45.88
2019-03-06T03:00:19.451Z,45.90
2019-03-06T03:01:03.858Z,45.95
2019-03-06T03:02:01.468Z,45.88
2019-03-06T03:02:57.985Z,45.71
2019-03-06T03:03:55.692Z,45.61
2019-03-06T03:04:42.386Z,45.67
2019-03-06T03:05:34.763Z,45.54
2019-03-06T03:06:17.223Z,45.31
2019-03-06T03:06:56.855Z,45.59
2019-03-06T03:07:33.106Z,45.56
2019-03-06T03:08:09.296Z,45.66
2019-03-06T03:08:45.478Z,45.64
2019-03-06T03:09:22.045Z,45.63
2019-03-06T03:09:58.189Z,45.61
2019-03-06T03:10:34.351Z,45.51
2019-03-06T03:11:10.645Z,45.47
2019-03-06T03:11:46.739Z,45.71
2019-03-06T03:12:22.850Z,45.24
2019-03-06T03:12:58.993Z,44.89
2019-03-06T03:13:35.122Z,44.40
2019-03-06T03:14:11.258Z,44.33
2019-03-06T03:14:47.411Z,44.41
2019-03-06T03:15:23.614Z,44.56
2019-03-06T03:15:59.794Z,44.57
2019-03-06T03:16:35.938Z,44.73
2019-03-06T03:17:12.076Z,44.75
2019-03-06T03:17:48.146Z,44.79
2019-03-06T03:18:24.381Z,44.70
2019-03-06T03:19:00.460Z,44.64
2019-03-06T03:19:36.559Z,44.55
2019-03-06T03:20:12.997Z,44.55
2019-03-06T03:20:49.105Z,44.47
2019-03-06T03:21:26.986Z,44.33
2019-03-06T03:22:03.212Z,44.35
2019-03-06T03:22:39.424Z,44.07
2019-03-06T03:23:15.643Z,43.98
2019-03-06T03:23:51.776Z,43.74
2019-03-06T03:24:28.009Z,43.61
2019-03-06T03:25:04.266Z,43.47
2019-03-06T03:25:40.453Z,43.43
2019-03-06T03:26:16.811Z,43.63
2019-03-06T03:26:52.904Z,43.69
2019-03-06T03:27:29.033Z,43.63
2019-03-06T03:28:05.284Z,43.65
2019-03-06T03:28:41.449Z,43.60
2019-03-06T03:29:17.841Z,43.53
2019-03-06T03:29:54.180Z,43.58
2019-03-06T03:30:30.308Z,43.47
2019-03-06T03:31:06.630Z,43.32
2019-03-06T03:31:42.811Z,43.17
2019-03-06T03:32:18.953Z,43.00
2019-03-06T03:32:55.176Z,42.81
2019-03-06T03:33:31.336Z,42.82
2019-03-06T03:34:07.571Z,42.84
2019-03-06T03:34:43.749Z,42.94
2019-03-06T03:35:19.848Z,43.16
2019-03-06T03:35:56.011Z,43.25
2019-03-06T03:36:32.252Z,43.06
2019-03-06T03:37:08.363Z,43.04
2019-03-06T03:37:44.512Z,42.97
2019-03-06T03:38:20.870Z,42.76
2019-03-06T03:38:57.023Z,42.56
2019-03-06T03:39:33.132Z,42.34
2019-03-06T03:40:10.021Z,42.17
2019-03-06T03:40:46.113Z,42.08
2019-03-06T03:41:22.230Z,42.16
2019-03-06T03:41:58.316Z,42.25
2019-03-06T03:42:34.497Z,42.05
2019-03-06T03:43:10.607Z,41.81
2019-03-06T03:43:46.811Z,41.75
2019-03-06T03:44:22.950Z,41.71
2019-03-06T03:44:59.229Z,41.72
2019-03-06T03:45:35.472Z,42.03
2019-03-06T03:46:11.514Z,42.08
2019-03-06T03:46:47.706Z,42.41
2019-03-06T03:47:24.067Z,42.36
2019-03-06T03:48:00.207Z,42.04
2019-03-06T03:48:36.336Z,42.04
2019-03-06T03:49:12.532Z,41.85
2019-03-06T03:49:48.628Z,41.78
2019-03-06T03:50:24.784Z,41.88
2019-03-06T03:51:00.984Z,41.83
2019-03-06T03:51:37.121Z,41.65
2019-03-06T03:52:13.243Z,41.48
2019-03-06T03:52:49.518Z,41.38
2019-03-06T03:53:25.694Z,41.28
2019-03-06T03:54:01.864Z,41.18
2019-03-06T03:54:38.004Z,40.84
2019-03-06T03:55:14.421Z,40.70
2019-03-06T03:55:50.621Z,40.63
2019-03-06T03:56:26.992Z,40.39
2019-03-06T03:57:03.100Z,40.15
2019-03-06T03:57:39.390Z,39.63
2019-03-06T03:58:15.608Z,39.53
2019-03-06T03:58:51.731Z,39.70
2019-03-06T03:59:27.868Z,39.96
2019-03-06T04:00:04.017Z,40.53
2019-03-06T04:00:40.177Z,40.75
2019-03-06T04:01:16.240Z,40.46
2019-03-06T04:01:52.612Z,40.56
2019-03-06T04:02:28.803Z,40.70
2019-03-06T04:03:05.140Z,40.82
2019-03-06T04:03:41.313Z,40.93
2019-03-06T04:04:17.470Z,40.63
2019-03-06T04:04:53.663Z,40.41
2019-03-06T04:05:29.780Z,40.35
2019-03-06T04:06:05.931Z,40.27
2019-03-06T04:06:42.201Z,40.20
2019-03-06T04:07:18.587Z,40.17
2019-03-06T04:07:54.938Z,40.10
2019-03-06T04:08:31.090Z,40.00
2019-03-06T04:09:08.163Z,39.94
2019-03-06T04:09:44.434Z,39.96
2019-03-06T04:10:20.487Z,40.04
2019-03-06T04:10:56.639Z,40.30
2019-03-06T04:11:32.773Z,40.28
2019-03-06T04:12:09.000Z,40.26
2019-03-06T04:12:45.081Z,40.35
2019-03-06T04:13:21.208Z,40.37
2019-03-06T04:13:57.390Z,40.33
2019-03-06T04:14:33.500Z,40.30
2019-03-06T04:15:10.670Z,40.46
2019-03-06T04:15:47.059Z,40.37
2019-03-06T04:16:23.127Z,40.06
2019-03-06T04:16:59.361Z,39.52
2019-03-06T04:17:35.529Z,39.36
2019-03-06T04:18:11.693Z,39.35
2019-03-06T04:18:47.851Z,39.30
2019-03-06T04:19:23.884Z,39.34
2019-03-06T04:19:59.988Z,39.62
2019-03-06T04:20:36.190Z,39.68
2019-03-06T04:21:12.258Z,39.69
2019-03-06T04:21:48.447Z,39.72
2019-03-06T04:22:24.616Z,39.80
2019-03-06T04:23:00.824Z,40.06
2019-03-06T04:23:36.987Z,39.93
2019-03-06T04:24:13.167Z,39.90
2019-03-06T04:24:49.531Z,40.00
2019-03-06T04:25:25.734Z,40.17
2019-03-06T04:26:01.893Z,40.17
2019-03-06T04:26:37.993Z,40.28
2019-03-06T04:27:14.167Z,40.17
2019-03-06T04:27:50.232Z,39.98
2019-03-06T04:28:28.001Z,39.63
2019-03-06T04:29:04.275Z,39.43
2019-03-06T04:29:40.423Z,39.67
2019-03-06T04:30:16.576Z,39.60
2019-03-06T04:30:55.228Z,39.42
2019-03-06T04:31:31.463Z,39.34
2019-03-06T04:32:07.603Z,39.48
2019-03-06T04:32:44.119Z,39.83
2019-03-06T04:33:20.405Z,39.91
2019-03-06T04:33:56.577Z,39.91
2019-03-06T04:34:32.681Z,39.97
2019-03-06T04:35:09.024Z,39.97
2019-03-06T04:35:45.208Z,40.18
2019-03-06T04:36:21.367Z,40.13
2019-03-06T04:36:57.567Z,40.23
2019-03-06T04:37:33.734Z,40.31
2019-03-06T04:38:09.840Z,40.40
2019-03-06T04:38:46.388Z,40.32
2019-03-06T04:39:22.710Z,40.35
2019-03-06T04:39:59.325Z,39.92
2019-03-06T04:40:35.525Z,39.65
2019-03-06T04:41:11.741Z,39.43
2019-03-06T04:41:48.256Z,39.33
2019-03-06T04:42:24.304Z,39.51
2019-03-06T04:43:00.453Z,39.73
2019-03-06T04:43:36.605Z,39.68
2019-03-06T04:44:12.700Z,39.61
2019-03-06T04:44:48.862Z,39.62
2019-03-06T04:45:25.122Z,39.76
2019-03-06T04:46:01.298Z,39.76
2019-03-06T04:46:37.415Z,39.80
2019-03-06T04:47:13.617Z,39.74
2019-03-06T04:47:49.904Z,39.88
2019-03-06T04:48:25.973Z,40.19
2019-03-06T04:49:02.102Z,40.29
2019-03-06T04:49:38.223Z,39.89
2019-03-06T04:50:14.523Z,39.53
2019-03-06T04:50:50.842Z,39.15
2019-03-06T04:51:27.059Z,39.03
2019-03-06T04:52:03.169Z,39.13
2019-03-06T04:52:39.373Z,39.54
2019-03-06T04:53:15.563Z,39.66
2019-03-06T04:53:51.676Z,39.68
2019-03-06T04:54:27.804Z,39.64
2019-03-06T04:55:04.136Z,39.76
2019-03-06T04:55:40.284Z,39.83
2019-03-06T04:56:16.499Z,39.68
2019-03-06T04:56:52.619Z,39.44
2019-03-06T04:57:28.750Z,39.16
2019-03-06T04:58:04.999Z,39.12
2019-03-06T04:58:41.206Z,39.50
2019-03-06T04:59:17.258Z,39.48
2019-03-06T04:59:53.809Z,39.31
2019-03-06T05:00:29.934Z,39.18
2019-03-06T05:01:06.099Z,39.32
2019-03-06T05:01:42.324Z,39.35
2019-03-06T05:02:18.451Z,38.79
2019-03-06T05:02:54.616Z,38.63
2019-03-06T05:03:30.871Z,38.19
2019-03-06T05:04:07.018Z,37.53
2019-03-06T05:04:43.171Z,36.31
2019-03-06T05:05:19.310Z,35.32
2019-03-06T05:05:55.544Z,35.15
2019-03-06T05:06:31.660Z,35.00
2019-03-06T05:07:07.726Z,34.91
2019-03-06T05:07:43.803Z,34.75
2019-03-06T05:08:19.882Z,34.72
2019-03-06T05:08:56.085Z,34.99
2019-03-06T05:09:32.189Z,35.18
2019-03-06T05:10:08.776Z,36.10
2019-03-06T05:10:45.067Z,36.85
2019-03-06T05:11:21.172Z,37.36
2019-03-06T05:11:57.326Z,37.58
2019-03-06T05:12:33.439Z,37.70
2019-03-06T05:13:09.597Z,38.37
2019-03-06T05:13:45.754Z,38.57
2019-03-06T05:14:21.844Z,38.76
2019-03-06T05:14:57.974Z,38.76
2019-03-06T05:15:34.226Z,38.66
2019-03-06T05:16:10.506Z,38.68
2019-03-06T05:17:03.492Z,38.94
2019-03-06T05:18:04.519Z,39.03
2019-03-06T05:18:57.410Z,38.92
2019-03-06T05:19:33.728Z,39.02
2019-03-06T05:20:09.961Z,38.77
2019-03-06T05:20:46.279Z,38.54
2019-03-06T05:21:22.627Z,38.33
2019-03-06T05:21:58.806Z,38.21
2019-03-06T05:22:34.904Z,38.04
2019-03-06T05:23:11.174Z,37.98
2019-03-06T05:23:47.346Z,37.85
2019-03-06T05:24:23.452Z,37.80
2019-03-06T05:24:59.561Z,37.88
2019-03-06T05:25:36.248Z,37.91
2019-03-06T05:26:12.607Z,38.04
2019-03-06T05:26:48.971Z,38.09
2019-03-06T05:27:25.180Z,37.95
2019-03-06T05:28:01.344Z,37.83
2019-03-06T05:28:37.554Z,37.77
2019-03-06T05:29:13.687Z,37.53
2019-03-06T05:29:49.870Z,37.46
2019-03-06T05:30:27.180Z,37.52
2019-03-06T05:31:03.350Z,37.46
2019-03-06T05:31:39.480Z,37.58
2019-03-06T05:32:40.423Z,37.57
2019-03-06T05:33:16.779Z,37.59
2019-03-06T05:33:52.977Z,37.82
2019-03-06T05:34:29.095Z,37.73
2019-03-06T05:35:14.425Z,37.93
2019-03-06T05:36:37.146Z,37.68
2019-03-06T05:38:14.287Z,37.65
2019-03-06T05:39:05.548Z,37.75
2019-03-06T05:39:41.844Z,36.60
2019-03-06T05:40:18.010Z,36.62
2019-03-06T05:40:54.121Z,36.52
2019-03-06T05:41:30.276Z,36.54
2019-03-06T05:42:06.318Z,36.60
2019-03-06T05:42:42.541Z,36.57
2019-03-06T05:43:18.689Z,36.69
2019-03-06T05:43:55.002Z,36.66
2019-03-06T05:44:31.087Z,36.66
2019-03-06T05:45:07.284Z,36.72
2019-03-06T05:45:43.462Z,35.85
2019-03-06T05:46:19.582Z,35.45
2019-03-06T05:46:55.734Z,34.78
2019-03-06T05:47:31.801Z,34.36
2019-03-06T05:48:07.909Z,34.22
2019-03-06T05:48:44.134Z,32.69
2019-03-06T05:49:20.347Z,31.96
2019-03-06T05:49:56.466Z,32.66
2019-03-06T05:50:32.684Z,32.38
2019-03-06T05:51:08.792Z,32.29
2019-03-06T05:51:45.157Z,31.70
2019-03-06T05:52:21.268Z,31.82
2019-03-06T05:52:57.456Z,32.06
2019-03-06T05:53:33.658Z,32.08
2019-03-06T05:54:09.741Z,32.21
2019-03-06T05:54:45.959Z,32.82
2019-03-06T05:55:22.088Z,32.76
2019-03-06T05:55:58.397Z,33.09
2019-03-06T05:56:34.666Z,33.73
2019-03-06T05:57:10.856Z,34.20
2019-03-06T05:57:46.923Z,34.78
2019-03-06T05:58:23.029Z,34.90
2019-03-06T05:58:59.267Z,34.78
2019-03-06T05:59:35.398Z,34.54
2019-03-06T06:00:11.997Z,34.33
2019-03-06T06:00:48.405Z,34.08
2019-03-06T06:01:24.499Z,33.75
2019-03-06T06:02:00.623Z,33.69
2019-03-06T06:02:36.750Z,33.71
2019-03-06T06:03:12.908Z,33.86
2019-03-06T06:03:48.990Z,34.07
2019-03-06T06:04:25.242Z,34.17
2019-03-06T06:05:01.414Z,34.26
2019-03-06T06:05:37.484Z,34.36
2019-03-06T06:06:13.676Z,34.54
2019-03-06T06:06:49.799Z,34.75
2019-03-06T06:07:25.997Z,34.64
2019-03-06T06:08:02.204Z,34.52
2019-03-06T06:08:38.400Z,34.84
2019-03-06T06:09:14.567Z,34.97
2019-03-06T06:09:50.870Z,35.13
2019-03-06T06:10:27.000Z,34.93
2019-03-06T06:11:03.154Z,34.42
2019-03-06T06:11:39.310Z,34.24
2019-03-06T06:12:15.492Z,34.70
2019-03-06T06:12:51.552Z,35.00
2019-03-06T06:13:27.724Z,35.65
2019-03-06T06:14:03.898Z,36.25
2019-03-06T06:14:40.115Z,36.34
2019-03-06T06:15:16.250Z,37.06
2019-03-06T06:15:52.356Z,36.37
2019-03-06T06:16:28.506Z,36.11
2019-03-06T06:17:04.714Z,36.06
2019-03-06T06:17:41.080Z,36.03
2019-03-06T06:18:17.233Z,36.32
2019-03-06T06:18:53.428Z,36.69
2019-03-06T06:19:29.920Z,36.77
2019-03-06T06:20:06.430Z,37.03
2019-03-06T06:20:42.662Z,37.07
2019-03-06T06:21:55.394Z,37.04
2019-03-06T06:22:36.571Z,36.67
2019-03-06T06:23:34.657Z,35.79
2019-03-06T06:24:19.481Z,35.31
2019-03-06T06:24:55.593Z,34.40
2019-03-06T06:25:32.744Z,34.02
2019-03-06T06:26:09.004Z,33.99
2019-03-06T06:26:45.827Z,34.27
2019-03-06T06:27:22.454Z,34.74
2019-03-06T06:27:59.131Z,35.16
2019-03-06T06:28:35.872Z,35.15
2019-03-06T06:29:12.503Z,35.01
2019-03-06T06:29:48.704Z,35.15
2019-03-06T06:30:24.961Z,35.12
2019-03-06T06:31:01.156Z,35.29
2019-03-06T06:31:37.347Z,35.70
2019-03-06T06:32:13.530Z,36.42
2019-03-06T06:32:49.752Z,35.81
2019-03-06T06:33:25.843Z,35.32
2019-03-06T06:34:01.999Z,34.96
2019-03-06T06:34:38.225Z,34.73
2019-03-06T06:35:14.377Z,35.00
2019-03-06T06:35:50.459Z,34.96
2019-03-06T06:36:26.611Z,35.20
2019-03-06T06:37:02.818Z,35.14
2019-03-06T06:37:38.939Z,35.14
2019-03-06T06:38:15.052Z,35.13
2019-03-06T06:38:51.270Z,35.09
2019-03-06T06:39:27.487Z,35.10
2019-03-06T06:40:03.584Z,34.58
2019-03-06T06:40:39.860Z,34.52
2019-03-06T06:41:16.140Z,34.66
2019-03-06T06:41:52.279Z,34.81
2019-03-06T06:42:28.440Z,34.94
2019-03-06T06:43:04.560Z,35.04
2019-03-06T06:43:40.859Z,35.24
2019-03-06T06:44:16.923Z,35.21
2019-03-06T06:44:53.376Z,34.79
2019-03-06T06:45:29.532Z,34.79
2019-03-06T06:46:07.556Z,34.79
2019-03-06T06:46:43.594Z,34.59
2019-03-06T06:47:19.826Z,34.56
2019-03-06T06:48:13.445Z,34.63
2019-03-06T06:48:49.595Z,34.92
2019-03-06T06:49:25.892Z,35.12
2019-03-06T06:50:02.130Z,35.10
2019-03-06T06:50:38.536Z,35.15
2019-03-06T06:51:36.806Z,35.38
2019-03-06T06:52:37.507Z,35.73
2019-03-06T06:53:36.509Z,34.66
2019-03-06T06:54:21.245Z,34.45
2019-03-06T06:55:29.012Z,34.85
2019-03-06T06:56:27.426Z,34.80
2019-03-06T06:57:16.907Z,35.40
2019-03-06T06:58:46.381Z,34.92
2019-03-06T06:59:44.027Z,34.58
2019-03-06T07:01:14.680Z,34.66
2019-03-06T07:02:28.227Z,34.98
2019-03-06T07:03:57.601Z,34.08
2019-03-06T07:05:28.887Z,34.13
2019-03-06T07:06:19.198Z,35.03
2019-03-06T07:07:16.997Z,35.21
2019-03-06T07:08:13.173Z,35.56
2019-03-06T07:09:10.841Z,35.89
2019-03-06T07:10:14.665Z,34.77
2019-03-06T07:11:09.677Z,34.51
2019-03-06T07:11:52.283Z,35.02
2019-03-06T07:13:02.056Z,35.59
2019-03-06T07:13:59.366Z,36.03
2019-03-06T07:15:03.287Z,36.58
2019-03-06T07:16:10.279Z,36.91
2019-03-06T07:17:05.281Z,36.57
2019-03-06T07:17:46.859Z,36.53
2019-03-06T07:18:31.055Z,36.59
2019-03-06T07:19:16.768Z,36.39
2019-03-06T07:20:01.615Z,36.42
2019-03-06T07:21:14.319Z,36.51
2019-03-06T07:22:00.530Z,37.17
2019-03-06T07:22:58.208Z,37.35
2019-03-06T07:23:43.026Z,37.19
2019-03-06T07:24:47.097Z,36.88
2019-03-06T07:25:30.017Z,36.97
2019-03-06T07:26:22.145Z,37.06
2019-03-06T07:27:24.148Z,37.12
2019-03-06T07:28:19.103Z,36.83
2019-03-06T07:29:14.130Z,36.87
2019-03-06T07:29:56.266Z,36.72
2019-03-06T07:31:02.941Z,36.68
2019-03-06T07:31:56.130Z,36.77
2019-03-06T07:32:40.858Z,37.01
2019-03-06T07:33:23.703Z,36.95
2019-03-06T07:34:14.726Z,37.18
2019-03-06T07:36:01.894Z,37.09
2019-03-06T07:37:11.619Z,36.76
2019-03-06T07:37:54.104Z,36.71
2019-03-06T07:38:30.611Z,36.71
2019-03-06T07:39:28.094Z,36.80
2019-03-06T07:40:12.342Z,36.72
2019-03-06T07:41:19.122Z,36.77
2019-03-06T07:42:16.931Z,36.63
2019-03-06T07:43:05.636Z,36.07
2019-03-06T07:43:57.602Z,36.07
2019-03-06T07:44:53.693Z,36.14
2019-03-06T07:46:05.821Z,35.80
2019-03-06T07:47:01.313Z,35.50
2019-03-06T07:47:57.912Z,35.45
2019-03-06T07:49:04.747Z,34.98
2019-03-06T07:50:07.745Z,35.36
2019-03-06T07:50:49.545Z,35.14
2019-03-06T07:51:34.189Z,35.52
2019-03-06T07:52:34.692Z,35.14
2019-03-06T07:53:54.368Z,34.77
2019-03-06T07:54:51.839Z,34.74
2019-03-06T07:55:52.622Z,35.23
2019-03-06T07:56:40.690Z,35.15
2019-03-06T07:57:33.688Z,34.96
2019-03-06T07:59:01.861Z,35.15
2019-03-06T07:59:37.997Z,35.14
2019-03-06T08:00:19.425Z,35.38
2019-03-06T08:00:55.586Z,35.20
2019-03-06T08:01:34.111Z,34.94
2019-03-06T08:02:13.030Z,34.66
2019-03-06T08:03:10.796Z,34.59
2019-03-06T08:03:51.326Z,34.49
2019-03-06T08:04:27.397Z,34.52
2019-03-06T08:05:03.562Z,34.67
2019-03-06T08:05:40.132Z,34.64
2019-03-06T08:06:16.299Z,34.57
2019-03-06T08:07:13.763Z,34.68
2019-03-06T08:07:49.979Z,34.61
2019-03-06T08:08:26.176Z,34.63
2019-03-06T08:09:02.625Z,34.54
2019-03-06T08:09:38.771Z,34.67
2019-03-06T08:10:17.931Z,34.77
2019-03-06T08:10:54.695Z,34.87
2019-03-06T08:11:50.148Z,34.61
2019-03-06T08:12:50.843Z,34.60
2019-03-06T08:13:37.973Z,34.50
2019-03-06T08:14:32.956Z,34.55
2019-03-06T08:15:45.874Z,34.39
2019-03-06T08:16:33.458Z,34.48
2019-03-06T08:17:22.749Z,34.64
2019-03-06T08:18:07.525Z,34.55
2019-03-06T08:19:08.352Z,34.33
2019-03-06T08:20:09.116Z,34.29
2019-03-06T08:21:09.957Z,34.21
2019-03-06T08:21:55.030Z,34.17
2019-03-06T08:22:57.769Z,33.82
2019-03-06T08:23:50.866Z,33.69
2019-03-06T08:24:36.190Z,33.40
2019-03-06T08:25:26.801Z,33.58
2019-03-06T08:26:02.982Z,33.76
2019-03-06T08:26:39.160Z,34.30
2019-03-06T08:27:15.386Z,34.51
2019-03-06T08:27:51.609Z,34.34
2019-03-06T08:28:27.748Z,34.23
2019-03-06T08:29:03.897Z,34.42
2019-03-06T08:29:39.984Z,34.46
2019-03-06T08:30:16.505Z,34.54
2019-03-06T08:31:11.481Z,34.70
2019-03-06T08:31:58.938Z,34.30